Time;durP1;ratioP1;P1;durP2;ratioP2;P2;SDS_P1;SDS_P2;PMS_P1;PMS_P2;Temp;Humidity;BMP_temperature;BMP_pressure;BME280_temperature;BME280_humidity;BME280_pressure;Samples;Min_cycle;Max_cycle;Signal;HPM_P1;HPM_P2
2021/05/15 00:01:48;;;;;;;4.72;4.25;;;13.50;99.90;;;;;;5105826;27;20579;-66
2021/05/15 00:04:15;;;;;;;4.55;3.83;;;13.60;99.90;;;;;;5119762;27;20226;-66
2021/05/15 00:06:42;;;;;;;4.38;3.97;;;13.60;99.90;;;;;;5113660;27;20226;-67
2021/05/15 00:09:09;;;;;;;4.53;4.13;;;13.60;99.90;;;;;;5110570;27;20215;-67
2021/05/15 00:11:36;;;;;;;4.35;3.95;;;13.60;99.90;;;;;;5112318;27;20214;-67
2021/05/15 00:14:04;;;;;;;4.03;3.67;;;13.60;99.90;;;;;;5121001;27;20219;-67
2021/05/15 00:16:31;;;;;;;4.75;3.92;;;13.50;99.90;;;;;;5110970;27;20215;-66
2021/05/15 00:18:57;;;;;;;4.40;4.00;;;13.50;99.90;;;;;;5114060;28;20546;-68
2021/05/15 00:21:24;;;;;;;4.32;4.00;;;13.50;99.90;;;;;;5110851;27;20680;-67
2021/05/15 00:23:50;;;;;;;4.55;4.07;;;13.50;99.90;;;;;;5105608;27;20219;-67
2021/05/15 00:26:17;;;;;;;5.07;4.43;;;13.50;99.90;;;;;;5113396;27;20229;-67
2021/05/15 00:28:44;;;;;;;4.35;3.95;;;13.50;99.90;;;;;;5113999;27;20242;-66
2021/05/15 00:31:11;;;;;;;5.72;5.30;;;13.50;99.90;;;;;;5114027;27;20272;-66
2021/05/15 00:33:37;;;;;;;5.20;4.80;;;13.50;99.90;;;;;;5113423;27;20234;-66
2021/05/15 00:36:05;;;;;;;5.40;4.95;;;13.50;99.90;;;;;;5114249;27;20297;-66
2021/05/15 00:38:31;;;;;;;5.50;5.13;;;13.50;99.90;;;;;;5113365;27;20230;-66
2021/05/15 00:40:58;;;;;;;8.43;7.75;;;13.50;99.90;;;;;;5113344;27;20229;-68
2021/05/15 00:43:27;;;;;;;7.82;7.22;;;13.40;99.90;;;;;;5113263;27;20279;-67
2021/05/15 00:45:54;;;;;;;7.38;6.78;;;13.40;99.90;;;;;;5113822;27;20245;-66
2021/05/15 00:48:21;;;;;;;6.15;5.65;;;13.40;99.90;;;;;;5112949;27;20219;-67
2021/05/15 00:50:47;;;;;;;5.65;5.25;;;13.30;99.90;;;;;;5113354;27;20237;-66
2021/05/15 00:53:13;;;;;;;5.22;4.65;;;13.30;99.90;;;;;;5113242;27;20225;-66
2021/05/15 00:55:40;;;;;;;4.65;4.25;;;13.30;99.90;;;;;;5104708;28;20214;-65
2021/05/15 00:58:06;;;;;;;4.30;4.00;;;13.30;99.90;;;;;;5113593;27;20238;-67
2021/05/15 01:00:33;;;;;;;5.55;4.75;;;13.30;99.90;;;;;;5113185;27;20222;-67
2021/05/15 01:03:00;;;;;;;4.55;3.97;;;13.30;99.90;;;;;;5113881;27;20230;-66
2021/05/15 01:05:27;;;;;;;6.10;5.50;;;13.30;99.90;;;;;;5112673;27;20223;-66
2021/05/15 01:07:54;;;;;;;6.32;5.80;;;13.20;99.90;;;;;;5113873;27;20291;-67
2021/05/15 01:10:20;;;;;;;6.35;5.75;;;13.20;99.90;;;;;;5112556;27;20230;-66
2021/05/15 01:12:51;;;;;;;5.88;5.38;;;13.20;99.90;;;;;;5113297;27;20219;-67
2021/05/15 01:15:19;;;;;;;5.57;5.03;;;13.20;99.90;;;;;;5112519;27;20223;-67
2021/05/15 01:17:52;;;;;;;6.68;5.65;;;13.10;99.90;;;;;;5104457;27;20230;-67
2021/05/15 01:20:20;;;;;;;5.43;5.00;;;13.10;99.90;;;;;;5113354;27;20545;-67
2021/05/15 01:22:48;;;;;;;4.47;3.53;;;13.10;99.90;;;;;;5110769;27;20238;-67
2021/05/15 01:25:17;;;;;;;7.15;4.88;;;13.10;99.90;;;;;;5111252;27;20214;-67
2021/05/15 01:27:44;;;;;;;4.78;4.07;;;13.10;99.90;;;;;;5112807;27;20238;-67
2021/05/15 01:30:12;;;;;;;4.68;4.25;;;13.00;99.90;;;;;;5113079;27;20226;-67
2021/05/15 01:32:41;;;;;;;4.68;4.28;;;13.00;99.90;;;;;;5112483;27;20219;-66
2021/05/15 01:35:09;;;;;;;5.07;4.63;;;13.00;99.90;;;;;;5112535;27;20261;-67
2021/05/15 01:37:36;;;;;;;4.95;4.55;;;13.00;99.90;;;;;;5108117;27;20219;-67
2021/05/15 01:40:04;;;;;;;5.53;5.13;;;13.00;99.90;;;;;;5112412;27;20745;-67
2021/05/15 01:42:31;;;;;;;5.45;4.95;;;12.90;99.90;;;;;;5112710;27;20547;-67
2021/05/15 01:44:57;;;;;;;5.53;5.03;;;12.90;99.90;;;;;;5112612;27;20347;-67
2021/05/15 01:47:24;;;;;;;5.40;4.20;;;12.90;99.90;;;;;;5112051;27;20237;-67
2021/05/15 01:49:50;;;;;;;4.35;4.05;;;12.90;99.90;;;;;;5112632;27;20245;-67
2021/05/15 01:52:17;;;;;;;6.07;4.97;;;12.90;99.90;;;;;;5111782;27;20264;-66
2021/05/15 01:54:44;;;;;;;5.65;4.75;;;12.90;99.90;;;;;;5108092;27;20231;-66
2021/05/15 01:57:11;;;;;;;4.57;4.18;;;12.90;99.90;;;;;;5112098;27;20241;-66
2021/05/15 01:59:40;;;;;;;5.22;4.72;;;12.90;99.90;;;;;;5110100;27;20225;-66
2021/05/15 02:02:06;;;;;;;5.70;4.95;;;12.90;99.90;;;;;;5110241;27;20340;-66
2021/05/15 02:04:33;;;;;;;5.28;4.78;;;12.90;99.90;;;;;;5111002;27;20236;-66
2021/05/15 02:07:01;;;;;;;6.10;5.50;;;12.90;99.90;;;;;;5113705;27;20222;-67
2021/05/15 02:09:27;;;;;;;5.43;4.93;;;12.80;99.90;;;;;;5111489;27;20223;-67
2021/05/15 02:11:53;;;;;;;6.25;5.75;;;12.80;99.90;;;;;;5111156;27;20222;-66
2021/05/15 02:14:21;;;;;;;6.18;5.57;;;12.80;99.90;;;;;;5109841;27;20241;-66
2021/05/15 02:16:47;;;;;;;6.35;5.78;;;12.80;99.90;;;;;;5110242;27;20225;-67
2021/05/15 02:19:14;;;;;;;5.93;5.30;;;12.80;99.90;;;;;;5109975;27;20218;-67
2021/05/15 02:21:40;;;;;;;6.30;5.65;;;12.70;99.90;;;;;;5109913;27;20226;-67
2021/05/15 02:24:08;;;;;;;5.38;4.97;;;12.70;99.90;;;;;;5110417;27;20214;-66
2021/05/15 02:26:35;;;;;;;5.90;5.40;;;12.70;99.90;;;;;;5109256;27;20234;-67
2021/05/15 02:29:02;;;;;;;6.63;5.70;;;12.70;99.90;;;;;;5111981;27;20229;-67
2021/05/15 02:31:29;;;;;;;5.25;4.75;;;12.70;99.90;;;;;;5111068;27;20421;-66
2021/05/15 02:33:55;;;;;;;5.95;5.45;;;12.70;99.90;;;;;;5112364;27;20222;-66
2021/05/15 02:36:22;;;;;;;5.30;4.80;;;12.70;99.90;;;;;;5111528;27;20223;-65
2021/05/15 02:38:50;;;;;;;6.10;5.50;;;12.60;99.90;;;;;;5112279;27;20558;-66
2021/05/15 02:41:17;;;;;;;4.97;4.47;;;12.70;99.90;;;;;;5111755;27;20272;-67
2021/05/15 02:43:43;;;;;;;5.35;4.95;;;12.60;99.90;;;;;;5111921;27;20977;-67
2021/05/15 02:46:10;;;;;;;5.70;5.20;;;12.60;99.90;;;;;;5112129;27;20222;-67
2021/05/15 02:48:38;;;;;;;5.65;5.15;;;12.60;99.90;;;;;;5104500;27;20602;-67
2021/05/15 02:51:04;;;;;;;5.32;4.82;;;12.60;99.90;;;;;;5107976;27;20218;-66
2021/05/15 02:53:31;;;;;;;4.95;4.55;;;12.60;99.90;;;;;;5111694;27;20563;-66
2021/05/15 02:55:59;;;;;;;7.28;6.18;;;12.60;99.90;;;;;;5102209;28;20303;-67
2021/05/15 02:58:25;;;;;;;5.00;4.60;;;12.60;99.90;;;;;;5111335;27;20230;-67
2021/05/15 03:00:52;;;;;;;6.50;6.00;;;12.60;99.90;;;;;;5111632;27;20230;-67
2021/05/15 03:03:18;;;;;;;5.43;4.93;;;12.60;99.90;;;;;;5111883;27;20230;-67
2021/05/15 03:05:46;;;;;;;5.93;5.43;;;12.60;99.90;;;;;;5111368;27;21118;-67
2021/05/15 03:08:12;;;;;;;6.38;4.45;;;12.60;99.90;;;;;;5114116;27;20285;-67
2021/05/15 03:10:38;;;;;;;5.90;5.40;;;12.60;99.90;;;;;;5111278;27;20223;-67
2021/05/15 03:13:05;;;;;;;4.95;4.45;;;12.60;99.90;;;;;;5112242;27;20229;-66
2021/05/15 03:15:31;;;;;;;5.90;5.30;;;12.50;99.90;;;;;;5110974;27;20234;-66
2021/05/15 03:17:58;;;;;;;7.15;5.57;;;12.50;99.90;;;;;;5111530;27;20234;-65
2021/05/15 03:20:26;;;;;;;6.25;5.75;;;12.50;99.90;;;;;;5109401;27;20226;-66
2021/05/15 03:22:54;;;;;;;5.97;5.47;;;12.50;99.90;;;;;;5111792;27;20230;-66
2021/05/15 03:25:22;;;;;;;5.43;4.63;;;12.50;99.90;;;;;;5111214;27;20226;-66
2021/05/15 03:27:48;;;;;;;7.13;5.93;;;12.50;99.90;;;;;;5111381;27;20222;-66
2021/05/15 03:30:17;;;;;;;7.53;6.85;;;12.50;99.90;;;;;;5111687;27;20230;-66
2021/05/15 03:32:43;;;;;;;5.43;4.88;;;12.40;99.90;;;;;;5111008;27;20244;-66
2021/05/15 03:35:12;;;;;;;5.18;4.68;;;12.50;99.90;;;;;;5111750;27;20218;-66
2021/05/15 03:37:39;;;;;;;6.10;4.68;;;12.50;99.90;;;;;;5110903;27;20229;-66
2021/05/15 03:40:08;;;;;;;5.55;5.05;;;12.50;99.90;;;;;;5111506;27;20222;-66
2021/05/15 03:42:34;;;;;;;5.20;4.30;;;12.40;99.90;;;;;;5111129;27;20680;-66
2021/05/15 03:45:01;;;;;;;5.38;4.47;;;12.40;99.90;;;;;;5115368;27;20257;-66
2021/05/15 03:47:27;;;;;;;6.70;5.68;;;12.40;99.90;;;;;;5113588;27;20259;-66
2021/05/15 03:49:54;;;;;;;10.15;5.25;;;12.40;99.90;;;;;;5110480;27;20214;-66
2021/05/15 03:52:20;;;;;;;6.35;5.28;;;12.40;99.90;;;;;;5110155;27;20237;-66
2021/05/15 03:54:46;;;;;;;5.97;5.40;;;12.40;99.90;;;;;;5107416;27;20231;-66
2021/05/15 03:57:14;;;;;;;5.72;4.97;;;12.40;99.90;;;;;;5110839;27;20568;-66
2021/05/15 03:59:40;;;;;;;4.72;4.32;;;12.40;99.90;;;;;;5114262;27;20676;-66
2021/05/15 04:02:07;;;;;;;5.22;4.72;;;12.40;99.90;;;;;;5114056;27;20219;-66
2021/05/15 04:04:34;;;;;;;4.40;4.00;;;12.40;99.90;;;;;;5114341;27;20628;-66
2021/05/15 04:07:00;;;;;;;7.82;5.28;;;12.40;99.90;;;;;;5116476;27;20949;-66
2021/05/15 04:09:27;;;;;;;5.50;4.85;;;12.40;99.90;;;;;;5107609;27;20225;-66
2021/05/15 04:11:53;;;;;;;5.78;5.28;;;12.40;99.90;;;;;;5114377;27;20219;-66
2021/05/15 04:14:31;;;;;;;5.05;4.65;;;12.40;99.90;;;;;;5114886;27;20211;-66
2021/05/15 04:17:17;;;;;;;5.20;4.78;;;12.40;99.90;;;;;;5113726;27;20238;-66
2021/05/15 04:19:43;;;;;;;5.60;5.13;;;12.50;99.90;;;;;;5114079;27;20230;-66
2021/05/15 04:22:10;;;;;;;5.70;5.20;;;12.50;99.90;;;;;;5113402;27;20275;-67
2021/05/15 04:24:36;;;;;;;5.95;4.65;;;12.50;99.90;;;;;;5112981;27;20218;-67
2021/05/15 04:27:05;;;;;;;6.47;5.93;;;12.50;99.90;;;;;;5114344;27;20619;-67
2021/05/15 04:29:33;;;;;;;6.38;5.78;;;12.60;99.90;;;;;;5114226;27;20660;-66
2021/05/15 04:32:00;;;;;;;6.15;5.55;;;12.60;99.90;;;;;;5113715;27;21070;-65
2021/05/15 04:34:29;;;;;;;7.15;6.55;;;12.60;99.90;;;;;;5112799;27;20695;-66
2021/05/15 04:36:57;;;;;;;6.07;5.57;;;12.70;99.90;;;;;;5110449;27;20565;-66
2021/05/15 04:39:24;;;;;;;6.00;5.43;;;12.70;99.90;;;;;;5110816;27;20219;-66
2021/05/15 04:41:50;;;;;;;5.70;5.15;;;12.70;99.90;;;;;;5110458;27;20226;-67
2021/05/15 04:44:17;;;;;;;5.60;5.10;;;12.80;99.90;;;;;;5109985;27;20218;-67
2021/05/15 04:46:44;;;;;;;5.97;5.38;;;12.80;99.90;;;;;;5110221;27;20255;-67
2021/05/15 04:49:11;;;;;;;4.90;4.50;;;12.90;99.90;;;;;;5111553;27;20223;-66
2021/05/15 04:51:37;;;;;;;4.28;3.88;;;12.90;99.90;;;;;;5111346;27;20219;-67
2021/05/15 04:54:05;;;;;;;5.60;5.00;;;13.00;99.90;;;;;;5112193;27;20230;-66
2021/05/15 04:56:31;;;;;;;5.07;4.68;;;13.00;99.90;;;;;;5111932;27;20226;-67
2021/05/15 04:58:58;;;;;;;4.50;4.10;;;13.00;99.90;;;;;;5111855;27;20310;-66
2021/05/15 05:01:24;;;;;;;4.10;3.78;;;13.10;99.90;;;;;;5112398;27;20222;-67
2021/05/15 05:03:52;;;;;;;5.28;4.70;;;13.20;99.90;;;;;;5111770;27;20242;-67
2021/05/15 05:06:19;;;;;;;3.60;3.30;;;13.20;99.90;;;;;;5112177;27;20619;-67
2021/05/15 05:08:46;;;;;;;3.90;3.50;;;13.30;99.90;;;;;;5110882;27;20230;-66
2021/05/15 05:11:13;;;;;;;3.97;3.58;;;13.40;99.90;;;;;;5112093;27;20229;-66
2021/05/15 05:13:39;;;;;;;3.85;3.50;;;13.50;99.90;;;;;;5111593;27;20233;-66
2021/05/15 05:16:06;;;;;;;4.40;4.00;;;13.50;99.90;;;;;;5112039;27;20226;-66
2021/05/15 05:18:32;;;;;;;4.68;4.28;;;13.60;99.90;;;;;;5111474;27;20215;-67
2021/05/15 05:21:01;;;;;;;7.47;4.63;;;13.60;99.90;;;;;;5111585;27;20241;-67
2021/05/15 05:23:28;;;;;;;5.10;4.63;;;13.60;99.90;;;;;;5110960;27;20727;-66
2021/05/15 05:25:54;;;;;;;4.40;4.00;;;13.70;99.90;;;;;;5111238;27;20289;-67
2021/05/15 05:28:24;;;;;;;4.90;4.60;;;13.70;99.90;;;;;;5111770;27;21073;-67
2021/05/15 05:30:54;;;;;;;6.10;5.55;;;13.70;99.90;;;;;;5112668;27;20222;-66
2021/05/15 05:33:21;;;;;;;7.53;5.95;;;13.70;99.90;;;;;;5113829;27;20725;-66
2021/05/15 05:35:47;;;;;;;8.20;5.38;;;13.70;99.90;;;;;;5113410;27;20233;-66
2021/05/15 05:38:15;;;;;;;5.60;4.65;;;13.80;99.90;;;;;;5113958;27;20227;-66
2021/05/15 05:40:42;;;;;;;5.40;5.00;;;13.90;99.90;;;;;;5113384;27;20555;-67
2021/05/15 05:43:08;;;;;;;7.25;6.05;;;13.90;99.90;;;;;;5113879;27;20222;-67
2021/05/15 05:45:34;;;;;;;6.28;5.30;;;14.00;99.90;;;;;;5113747;27;20219;-67
2021/05/15 05:48:01;;;;;;;7.38;6.68;;;14.00;99.90;;;;;;5112925;27;20271;-66
2021/05/15 05:50:27;;;;;;;6.72;6.15;;;14.10;99.90;;;;;;5113438;27;20237;-66
2021/05/15 05:52:55;;;;;;;8.57;7.68;;;14.10;99.90;;;;;;5113253;27;20615;-66
2021/05/15 05:55:23;;;;;;;9.00;7.53;;;14.10;99.90;;;;;;5113425;27;20211;-66
2021/05/15 05:57:49;;;;;;;7.93;7.13;;;14.10;99.90;;;;;;5113133;27;20238;-66
2021/05/15 06:00:17;;;;;;;8.02;7.22;;;14.10;99.90;;;;;;5113308;27;20544;-66
2021/05/15 06:02:43;;;;;;;7.38;6.60;;;14.20;99.90;;;;;;5113000;27;20230;-66
2021/05/15 06:05:11;;;;;;;8.38;7.57;;;14.30;99.90;;;;;;5113603;27;20218;-66
2021/05/15 06:07:37;;;;;;;7.10;6.50;;;14.30;99.90;;;;;;5112474;27;20253;-66
2021/05/15 06:10:05;;;;;;;9.77;8.80;;;14.40;99.90;;;;;;5113089;27;20226;-66
2021/05/15 06:12:32;;;;;;;11.43;7.57;;;14.40;99.90;;;;;;5113459;27;20284;-66
2021/05/15 06:14:59;;;;;;;8.80;8.00;;;14.50;99.90;;;;;;5112872;27;20231;-66
2021/05/15 06:17:26;;;;;;;10.77;8.82;;;14.60;99.90;;;;;;5113307;27;20227;-66
2021/05/15 06:19:52;;;;;;;11.90;8.60;;;14.70;99.90;;;;;;5112640;27;20395;-66
2021/05/15 06:22:19;;;;;;;11.45;8.45;;;14.80;99.90;;;;;;5113160;27;20611;-66
2021/05/15 06:24:45;;;;;;;8.38;7.60;;;14.90;99.90;;;;;;5113044;27;20227;-66
2021/05/15 06:27:11;;;;;;;8.70;7.90;;;15.00;99.90;;;;;;5112849;27;20233;-66
2021/05/15 06:29:39;;;;;;;7.65;6.95;;;15.00;99.90;;;;;;5113228;27;20460;-66
2021/05/15 06:32:06;;;;;;;8.18;7.38;;;15.20;99.90;;;;;;5112633;27;20279;-66
2021/05/15 06:34:32;;;;;;;8.27;7.47;;;15.30;99.90;;;;;;5113100;27;20268;-66
2021/05/15 06:36:58;;;;;;;7.32;6.72;;;15.40;99.90;;;;;;5112328;27;20246;-66
2021/05/15 06:39:25;;;;;;;8.75;7.95;;;15.50;99.90;;;;;;5112864;27;20223;-66
2021/05/15 06:41:51;;;;;;;7.97;7.27;;;15.70;99.90;;;;;;5112671;27;20219;-66
2021/05/15 06:44:18;;;;;;;8.93;8.10;;;15.80;99.90;;;;;;5113078;27;20514;-66
2021/05/15 06:46:45;;;;;;;9.00;8.30;;;16.00;99.90;;;;;;5112969;27;20473;-66
2021/05/15 06:49:11;;;;;;;10.60;7.97;;;16.20;99.90;;;;;;5112738;27;20553;-66
2021/05/15 06:51:38;;;;;;;7.63;7.00;;;16.40;99.90;;;;;;5113081;27;20783;-66
2021/05/15 06:54:06;;;;;;;7.87;7.23;;;16.60;99.90;;;;;;5112448;27;20452;-66
2021/05/15 06:56:33;;;;;;;9.03;8.10;;;16.70;99.90;;;;;;5112857;27;20480;-66
2021/05/15 06:58:59;;;;;;;7.97;7.27;;;16.90;99.90;;;;;;5112459;27;20473;-66
2021/05/15 07:01:26;;;;;;;10.23;9.23;;;17.10;99.90;;;;;;5112713;27;20639;-66
2021/05/15 07:03:53;;;;;;;9.00;8.10;;;17.20;99.90;;;;;;5112136;27;20472;-66
2021/05/15 07:06:19;;;;;;;9.50;8.43;;;17.30;99.90;;;;;;5112746;27;20468;-66
2021/05/15 07:08:46;;;;;;;8.00;7.20;;;17.40;99.60;;;;;;5112710;27;20477;-66
2021/05/15 07:11:12;;;;;;;9.20;8.27;;;17.50;99.30;;;;;;5112312;27;20464;-66
2021/05/15 07:13:39;;;;;;;8.00;7.20;;;17.60;99.10;;;;;;5112806;27;20483;-66
2021/05/15 07:16:05;;;;;;;8.37;7.50;;;17.60;98.80;;;;;;5112181;27;20460;-66
2021/05/15 07:18:32;;;;;;;6.80;6.20;;;17.70;98.60;;;;;;5114423;27;20468;-66
2021/05/15 07:20:59;;;;;;;6.63;6.03;;;17.80;98.80;;;;;;5116227;27;20464;-66
2021/05/15 07:23:25;;;;;;;7.30;6.70;;;17.90;98.80;;;;;;5116510;27;20857;-66
2021/05/15 07:25:52;;;;;;;7.77;7.10;;;18.00;98.60;;;;;;5116207;27;20467;-66
2021/05/15 07:28:18;;;;;;;10.43;9.57;;;18.10;98.30;;;;;;5116261;28;20537;-66
2021/05/15 07:30:45;;;;;;;6.67;6.17;;;18.30;98.20;;;;;;5116265;27;20461;-66
2021/05/15 07:33:12;;;;;;;7.20;6.57;;;18.40;98.10;;;;;;5115980;28;20460;-67
2021/05/15 07:35:38;;;;;;;6.83;6.23;;;18.60;97.90;;;;;;5116294;28;20996;-66
2021/05/15 07:38:06;;;;;;;5.30;4.90;;;18.70;96.80;;;;;;5115765;28;20521;-66
2021/05/15 07:40:33;;;;;;;5.67;5.27;;;18.60;96.60;;;;;;5116202;28;20464;-66
2021/05/15 07:43:04;;;;;;;7.40;6.80;;;18.70;96.40;;;;;;5115743;28;20465;-66
2021/05/15 07:45:31;;;;;;;6.70;6.10;;;18.80;95.80;;;;;;5116366;28;20489;-66
2021/05/15 07:47:57;;;;;;;5.80;5.30;;;18.80;95.70;;;;;;5115539;27;20480;-66
2021/05/15 07:50:24;;;;;;;6.77;6.17;;;18.90;95.60;;;;;;5116195;28;20456;-66
2021/05/15 07:52:50;;;;;;;6.53;5.90;;;19.00;96.10;;;;;;5115926;28;20525;-67
2021/05/15 07:55:17;;;;;;;8.53;7.57;;;19.10;95.60;;;;;;5115686;27;20483;-64
2021/05/15 07:57:44;;;;;;;8.10;7.37;;;19.10;95.60;;;;;;5112203;27;20475;-66
2021/05/15 08:00:12;;;;;;;7.63;7.03;;;19.20;95.50;;;;;;5115482;28;20468;-66
2021/05/15 08:02:39;;;;;;;8.50;7.80;;;19.30;95.40;;;;;;5111004;27;20480;-66
2021/05/15 08:05:06;;;;;;;10.00;9.20;;;19.30;95.10;;;;;;5113068;27;20480;-66
2021/05/15 08:07:33;;;;;;;9.13;8.30;;;19.30;95.00;;;;;;5114340;27;20472;-66
2021/05/15 08:09:59;;;;;;;8.20;7.50;;;19.40;95.40;;;;;;5100226;27;20477;-66
2021/05/15 08:12:27;;;;;;;9.60;8.80;;;19.50;95.40;;;;;;5095646;28;20966;-66
2021/05/15 08:14:53;;;;;;;8.87;8.20;;;19.60;94.70;;;;;;5112216;27;20465;-66
2021/05/15 08:17:21;;;;;;;9.10;8.30;;;19.60;94.70;;;;;;5113814;27;21224;-66
2021/05/15 08:19:47;;;;;;;8.50;7.80;;;19.70;94.60;;;;;;5115063;27;20557;-66
2021/05/15 08:22:14;;;;;;;8.00;7.40;;;19.70;94.30;;;;;;5114876;27;20462;-66
2021/05/15 08:24:40;;;;;;;8.23;7.63;;;19.80;93.70;;;;;;5113153;27;20472;-67
2021/05/15 08:27:06;;;;;;;8.80;8.07;;;19.80;93.90;;;;;;5114589;27;20474;-66
2021/05/15 08:29:34;;;;;;;6.53;5.93;;;19.90;93.40;;;;;;5112804;27;20506;-66
2021/05/15 08:32:01;;;;;;;5.90;5.30;;;19.90;93.40;;;;;;5114581;27;20475;-66
2021/05/15 08:34:28;;;;;;;7.80;7.17;;;20.00;93.70;;;;;;5114140;27;20458;-65
2021/05/15 08:36:54;;;;;;;7.77;7.17;;;20.00;93.40;;;;;;5112481;27;20984;-65
2021/05/15 08:39:21;;;;;;;8.40;7.57;;;20.00;93.10;;;;;;5114509;27;20463;-65
2021/05/15 08:41:47;;;;;;;7.23;6.37;;;20.00;93.10;;;;;;5114176;27;20458;-66
2021/05/15 08:44:15;;;;;;;7.00;6.50;;;20.00;93.00;;;;;;5114399;27;20954;-65
2021/05/15 08:46:44;;;;;;;6.73;6.23;;;20.00;93.20;;;;;;5112375;27;20473;-65
2021/05/15 08:49:14;;;;;;;5.90;5.50;;;19.90;91.90;;;;;;5114128;27;20466;-66
2021/05/15 08:51:42;;;;;;;6.93;6.43;;;20.00;92.30;;;;;;5112581;27;20484;-66
2021/05/15 08:54:09;;;;;;;7.37;6.27;;;20.00;92.40;;;;;;5112641;27;20522;-65
2021/05/15 08:56:36;;;;;;;8.40;7.80;;;20.00;92.40;;;;;;5113511;27;20798;-65
2021/05/15 08:59:04;;;;;;;8.53;7.83;;;20.00;91.60;;;;;;5113972;27;20971;-65
2021/05/15 09:01:30;;;;;;;7.20;6.60;;;20.00;91.90;;;;;;5113105;27;20995;-67
2021/05/15 09:03:58;;;;;;;7.00;6.40;;;20.10;92.30;;;;;;5114381;27;20477;-66
2021/05/15 09:06:24;;;;;;;6.70;6.10;;;20.10;92.20;;;;;;5112225;27;20451;-65
2021/05/15 09:08:51;;;;;;;7.80;6.93;;;20.20;92.40;;;;;;5114262;27;20469;-65
2021/05/15 09:11:18;;;;;;;6.17;5.67;;;20.20;92.20;;;;;;5108171;27;20481;-66
2021/05/15 09:13:53;;;;;;;8.17;7.37;;;20.20;92.10;;;;;;5113196;27;20463;-66
2021/05/15 09:16:20;;;;;;;8.53;7.77;;;20.30;92.20;;;;;;5112188;27;20554;-65
2021/05/15 09:18:47;;;;;;;8.90;7.87;;;20.20;92.10;;;;;;5113166;27;20474;-65
2021/05/15 09:21:17;;;;;;;8.90;8.20;;;20.20;92.10;;;;;;5113493;27;20532;-66
2021/05/15 09:23:46;;;;;;;7.67;6.80;;;20.30;92.20;;;;;;5112094;27;20462;-65
2021/05/15 09:26:14;;;;;;;7.10;6.50;;;20.30;91.90;;;;;;5113215;27;20475;-65
2021/05/15 09:28:44;;;;;;;10.50;9.60;;;20.30;91.10;;;;;;5113120;27;20462;-65
2021/05/15 09:31:16;;;;;;;8.10;7.40;;;20.40;91.40;;;;;;5113439;27;20467;-65
2021/05/15 09:33:44;;;;;;;7.80;7.20;;;20.30;91.10;;;;;;5112787;27;20516;-66
2021/05/15 09:36:14;;;;;;;6.90;6.30;;;20.30;91.00;;;;;;5111988;27;20469;-67
2021/05/15 09:38:41;;;;;;;9.53;8.63;;;20.30;90.90;;;;;;5111547;27;20478;-65
2021/05/15 09:41:07;;;;;;;6.70;6.10;;;20.30;91.20;;;;;;5112422;27;20783;-65
2021/05/15 09:43:33;;;;;;;8.20;6.83;;;20.30;91.30;;;;;;5112194;27;20461;-65
2021/05/15 09:46:00;;;;;;;7.40;6.67;;;20.30;91.10;;;;;;5112853;27;20478;-65
2021/05/15 09:48:36;;;;;;;6.40;5.83;;;20.30;91.10;;;;;;5112153;27;20460;-65
2021/05/15 09:51:14;;;;;;;5.27;4.77;;;20.30;91.20;;;;;;5113660;27;20542;-65
2021/05/15 09:53:41;;;;;;;7.57;6.87;;;20.40;91.30;;;;;;5112975;27;20472;-65
2021/05/15 09:56:08;;;;;;;5.57;5.17;;;20.30;90.90;;;;;;5112474;27;20467;-65
2021/05/15 09:58:34;;;;;;;6.90;6.30;;;20.30;91.00;;;;;;5112299;27;20470;-65
2021/05/15 10:01:01;;;;;;;6.00;5.60;;;20.30;91.00;;;;;;5112828;27;20501;-66
2021/05/15 10:03:29;;;;;;;7.33;6.67;;;20.30;91.10;;;;;;5112104;27;20456;-66
2021/05/15 10:06:04;;;;;;;7.43;6.73;;;20.30;90.90;;;;;;5112419;27;20469;-65
2021/05/15 10:08:32;;;;;;;7.30;6.60;;;20.30;90.80;;;;;;5110097;27;20465;-66
2021/05/15 10:11:00;;;;;;;6.70;6.13;;;20.40;90.80;;;;;;5111819;27;20530;-65
2021/05/15 10:13:27;;;;;;;6.07;5.60;;;20.40;90.20;;;;;;5113315;27;20468;-66
2021/05/15 10:15:53;;;;;;;4.90;4.57;;;20.50;90.30;;;;;;5111435;27;20474;-65
2021/05/15 10:18:20;;;;;;;3.63;3.33;;;20.60;89.70;;;;;;5113002;27;20602;-66
2021/05/15 10:20:49;;;;;;;3.77;3.40;;;20.60;88.90;;;;;;5111782;27;20468;-65
2021/05/15 10:23:18;;;;;;;4.87;3.57;;;20.60;84.70;;;;;;5113283;27;20463;-65
2021/05/15 10:25:46;;;;;;;3.40;3.03;;;20.60;84.00;;;;;;5111442;27;20524;-66
2021/05/15 10:28:15;;;;;;;3.43;3.13;;;20.70;85.20;;;;;;5112775;28;20765;-66
2021/05/15 10:30:42;;;;;;;4.23;3.90;;;20.70;83.60;;;;;;5111672;27;21032;-66
2021/05/15 10:33:10;;;;;;;16.87;15.27;;;20.70;82.60;;;;;;5112541;27;20514;-66
2021/05/15 10:35:42;;;;;;;5.47;5.07;;;20.70;82.70;;;;;;5110836;27;20470;-66
2021/05/15 10:38:11;;;;;;;9.40;8.60;;;20.80;82.10;;;;;;5112517;27;20466;-66
2021/05/15 10:40:46;;;;;;;6.87;6.17;;;20.80;81.70;;;;;;5111796;27;20469;-66
2021/05/15 10:43:14;;;;;;;5.53;5.03;;;20.80;79.50;;;;;;5110588;27;20461;-66
2021/05/15 10:45:41;;;;;;;3.53;3.23;;;20.90;79.20;;;;;;5111718;27;20479;-66
2021/05/15 10:48:22;;;;;;;4.10;3.90;;;20.90;79.60;;;;;;5111930;27;20484;-66
2021/05/15 10:50:53;;;;;;;9.30;8.43;;;21.10;79.90;;;;;;5111853;27;20522;-66
2021/05/15 10:53:24;;;;;;;4.70;4.30;;;21.10;78.90;;;;;;5113354;27;20489;-66
2021/05/15 10:56:10;;;;;;;5.20;3.57;;;21.20;78.10;;;;;;5115864;27;20535;-67
2021/05/15 10:58:42;;;;;;;3.97;3.60;;;21.30;78.70;;;;;;5116072;27;20463;-67
2021/05/15 11:01:14;;;;;;;6.03;5.47;;;21.40;80.40;;;;;;5116767;27;20456;-66
2021/05/15 11:03:42;;;;;;;3.90;3.60;;;21.40;77.30;;;;;;5113007;27;20473;-67
2021/05/15 11:06:20;;;;;;;2.00;1.90;;;21.40;76.80;;;;;;5115273;27;20455;-67
2021/05/15 11:09:00;;;;;;;1.90;1.57;;;21.40;75.40;;;;;;5116239;28;20764;-66
2021/05/15 11:11:38;;;;;;;1.50;1.40;;;21.40;76.00;;;;;;5116682;28;20464;-65
2021/05/15 11:14:20;;;;;;;1.10;1.00;;;21.40;74.70;;;;;;5109378;27;20455;-65
2021/05/15 11:16:46;;;;;;;2.00;1.90;;;21.40;75.20;;;;;;5115616;27;20474;-66
2021/05/15 11:19:14;;;;;;;1.50;1.40;;;21.50;76.70;;;;;;5116656;27;20473;-65
2021/05/15 11:21:41;;;;;;;3.70;3.40;;;21.50;76.70;;;;;;5115669;27;20980;-66
2021/05/15 11:24:09;;;;;;;4.37;3.97;;;21.40;74.30;;;;;;5115842;27;20488;-66
2021/05/15 11:26:48;;;;;;;3.50;2.57;;;21.40;74.30;;;;;;5116329;27;20788;-65
2021/05/15 11:29:15;;;;;;;2.40;2.20;;;21.40;75.30;;;;;;5116038;27;20448;-65
2021/05/15 11:31:41;;;;;;;1.83;1.53;;;21.40;75.40;;;;;;5115067;27;20471;-66
2021/05/15 11:34:12;;;;;;;1.60;1.50;;;21.20;76.40;;;;;;5115736;27;20464;-66
2021/05/15 11:36:43;;;;;;;2.60;1.67;;;21.20;76.40;;;;;;5114495;27;20466;-66
2021/05/15 11:39:12;;;;;;;2.33;1.57;;;21.20;76.90;;;;;;5115494;27;20551;-66
2021/05/15 11:41:40;;;;;;;4.00;3.60;;;21.30;78.20;;;;;;5115115;27;20809;-66
2021/05/15 11:44:06;;;;;;;3.73;3.33;;;21.30;78.40;;;;;;5115398;27;20475;-66
2021/05/15 11:46:33;;;;;;;2.20;2.07;;;21.30;78.00;;;;;;5114874;27;20824;-66
2021/05/15 11:48:59;;;;;;;3.10;2.03;;;21.20;77.20;;;;;;5114170;27;20476;-66
2021/05/15 11:51:27;;;;;;;2.07;1.87;;;21.20;78.30;;;;;;5114505;27;20470;-66
2021/05/15 11:53:57;;;;;;;2.60;2.07;;;21.10;77.10;;;;;;5111255;27;20523;-65
2021/05/15 11:56:25;;;;;;;2.10;1.90;;;21.00;74.70;;;;;;5101273;27;20459;-65
2021/05/15 11:58:55;;;;;;;1.93;1.83;;;20.90;75.70;;;;;;5104849;28;20475;-66
2021/05/15 12:01:23;;;;;;;2.33;2.13;;;20.80;75.90;;;;;;5110996;27;20856;-66
2021/05/15 12:03:50;;;;;;;2.60;2.13;;;20.70;75.00;;;;;;5096750;28;20816;-66
2021/05/15 12:06:17;;;;;;;2.37;2.20;;;20.60;76.60;;;;;;5114162;27;20459;-66
2021/05/15 12:08:44;;;;;;;3.50;3.20;;;20.50;78.50;;;;;;5111507;27;20471;-66
2021/05/15 12:11:11;;;;;;;3.03;2.33;;;20.40;80.30;;;;;;5110842;27;20462;-66
2021/05/15 12:13:48;;;;;;;2.80;2.60;;;20.40;82.00;;;;;;5109316;27;21003;-65
2021/05/15 12:16:16;;;;;;;2.43;2.23;;;20.40;82.70;;;;;;5111809;27;20459;-66
2021/05/15 12:18:42;;;;;;;3.30;3.00;;;20.30;83.60;;;;;;5114765;27;20808;-66
2021/05/15 12:21:09;;;;;;;3.00;2.53;;;20.30;84.90;;;;;;5113326;27;20463;-66
2021/05/15 12:23:36;;;;;;;4.97;3.37;;;20.30;85.90;;;;;;5112479;27;20459;-66
2021/05/15 12:26:07;;;;;;;3.03;2.00;;;20.40;87.60;;;;;;5112831;27;20471;-66
2021/05/15 12:28:41;;;;;;;2.67;2.00;;;20.40;86.60;;;;;;5113508;28;20471;-66
2021/05/15 12:31:25;;;;;;;4.47;2.30;;;20.40;86.70;;;;;;5113336;28;20462;-65
2021/05/15 12:33:52;;;;;;;3.60;2.40;;;20.50;86.20;;;;;;5113751;28;20477;-65
2021/05/15 12:36:19;;;;;;;3.53;1.73;;;20.50;86.00;;;;;;5114197;28;20528;-66
2021/05/15 12:38:47;;;;;;;1.50;1.40;;;20.50;84.20;;;;;;5114073;27;20467;-65
2021/05/15 12:41:15;;;;;;;2.57;2.30;;;20.50;83.90;;;;;;5113980;28;20465;-65
2021/05/15 12:43:45;;;;;;;2.57;2.23;;;20.50;84.30;;;;;;5114732;28;20474;-66
2021/05/15 12:46:16;;;;;;;3.70;2.60;;;20.60;84.10;;;;;;5114633;27;20463;-66
2021/05/15 12:48:54;;;;;;;3.40;1.83;;;20.50;82.90;;;;;;5114744;28;20467;-66